sensor_id;sensor_type;location;lat;lon;timestamp;temperature;humidity
45535;DHT22;35892;48.798;9.698;2022-07-23T00:00:55;23.50;99.90
45535;DHT22;35892;48.798;9.698;2022-07-23T00:03:24;23.60;99.90
45535;DHT22;35892;48.798;9.698;2022-07-23T00:05:54;23.60;99.90
45535;DHT22;35892;48.798;9.698;2022-07-23T00:08:21;23.60;99.90
45535;DHT22;35892;48.798;9.698;2022-07-23T00:10:50;23.60;99.90
45535;DHT22;35892;48.798;9.698;2022-07-23T00:13:16;23.50;99.90
45535;DHT22;35892;48.798;9.698;2022-07-23T00:15:43;23.30;99.90
45535;DHT22;35892;48.798;9.698;2022-07-23T00:18:10;23.20;99.90
45535;DHT22;35892;48.798;9.698;2022-07-23T00:20:39;23.10;99.90
45535;DHT22;35892;48.798;9.698;2022-07-23T00:23:06;22.90;99.90
45535;DHT22;35892;48.798;9.698;2022-07-23T00:25:34;22.80;99.90
45535;DHT22;35892;48.798;9.698;2022-07-23T00:28:01;22.70;99.90
45535;DHT22;35892;48.798;9.698;2022-07-23T00:30:30;22.70;99.90
45535;DHT22;35892;48.798;9.698;2022-07-23T00:33:15;22.70;99.90
45535;DHT22;35892;48.798;9.698;2022-07-23T00:35:42;22.50;99.90
45535;DHT22;35892;48.798;9.698;2022-07-23T00:38:09;22.50;99.90
45535;DHT22;35892;48.798;9.698;2022-07-23T00:40:37;22.40;99.90
45535;DHT22;35892;48.798;9.698;2022-07-23T00:43:05;22.40;99.90
45535;DHT22;35892;48.798;9.698;2022-07-23T00:45:34;22.30;99.90
45535;DHT22;35892;48.798;9.698;2022-07-23T00:48:01;22.20;99.90
45535;DHT22;35892;48.798;9.698;2022-07-23T00:50:28;22.10;99.90
45535;DHT22;35892;48.798;9.698;2022-07-23T00:52:55;22.00;99.90
45535;DHT22;35892;48.798;9.698;2022-07-23T00:55:24;22.00;99.90
45535;DHT22;35892;48.798;9.698;2022-07-23T00:57:53;21.90;99.90
45535;DHT22;35892;48.798;9.698;2022-07-23T01:00:20;21.90;99.90
45535;DHT22;35892;48.798;9.698;2022-07-23T01:02:47;22.10;99.90
45535;DHT22;35892;48.798;9.698;2022-07-23T01:05:16;22.10;99.90
45535;DHT22;35892;48.798;9.698;2022-07-23T01:07:52;22.00;99.90
45535;DHT22;35892;48.798;9.698;2022-07-23T01:10:24;21.90;99.90
45535;DHT22;35892;48.798;9.698;2022-07-23T01:13:03;21.90;99.90
45535;DHT22;35892;48.798;9.698;2022-07-23T01:15:32;21.90;99.90
45535;DHT22;35892;48.798;9.698;2022-07-23T01:17:59;21.90;99.90
45535;DHT22;35892;48.798;9.698;2022-07-23T01:20:29;21.90;99.90
45535;DHT22;35892;48.798;9.698;2022-07-23T01:22:56;22.00;99.90
45535;DHT22;35892;48.798;9.698;2022-07-23T01:25:25;22.00;99.90
45535;DHT22;35892;48.798;9.698;2022-07-23T01:27:55;22.00;99.90
45535;DHT22;35892;48.798;9.698;2022-07-23T01:30:24;21.90;99.90
45535;DHT22;35892;48.798;9.698;2022-07-23T01:32:51;21.90;99.90
45535;DHT22;35892;48.798;9.698;2022-07-23T01:35:20;21.80;99.90
45535;DHT22;35892;48.798;9.698;2022-07-23T01:37:46;21.80;99.90
45535;DHT22;35892;48.798;9.698;2022-07-23T01:40:13;21.70;99.90
45535;DHT22;35892;48.798;9.698;2022-07-23T01:42:40;21.70;99.90
45535;DHT22;35892;48.798;9.698;2022-07-23T01:45:10;21.70;99.90
45535;DHT22;35892;48.798;9.698;2022-07-23T01:47:37;21.60;99.90
45535;DHT22;35892;48.798;9.698;2022-07-23T01:50:04;21.60;99.90
45535;DHT22;35892;48.798;9.698;2022-07-23T01:52:34;21.50;99.90
45535;DHT22;35892;48.798;9.698;2022-07-23T01:55:00;21.50;99.90
45535;DHT22;35892;48.798;9.698;2022-07-23T01:57:27;21.50;99.90
45535;DHT22;35892;48.798;9.698;2022-07-23T01:59:54;21.60;99.90
45535;DHT22;35892;48.798;9.698;2022-07-23T02:02:21;21.70;99.90
45535;DHT22;35892;48.798;9.698;2022-07-23T02:04:53;21.80;99.90
45535;DHT22;35892;48.798;9.698;2022-07-23T02:07:20;21.80;99.90
45535;DHT22;35892;48.798;9.698;2022-07-23T02:09:46;21.70;99.90
45535;DHT22;35892;48.798;9.698;2022-07-23T02:12:14;21.60;99.90
45535;DHT22;35892;48.798;9.698;2022-07-23T02:14:41;21.60;99.90
45535;DHT22;35892;48.798;9.698;2022-07-23T02:17:11;21.50;99.90
45535;DHT22;35892;48.798;9.698;2022-07-23T02:19:38;21.50;99.90
45535;DHT22;35892;48.798;9.698;2022-07-23T02:22:05;21.50;99.90
45535;DHT22;35892;48.798;9.698;2022-07-23T02:24:32;21.50;99.90
45535;DHT22;35892;48.798;9.698;2022-07-23T02:26:58;21.50;99.90
45535;DHT22;35892;48.798;9.698;2022-07-23T02:29:26;21.40;99.90
45535;DHT22;35892;48.798;9.698;2022-07-23T02:31:52;21.40;99.90
45535;DHT22;35892;48.798;9.698;2022-07-23T02:34:22;21.40;99.90
45535;DHT22;35892;48.798;9.698;2022-07-23T02:36:49;21.30;99.90
45535;DHT22;35892;48.798;9.698;2022-07-23T02:39:16;21.10;99.90
45535;DHT22;35892;48.798;9.698;2022-07-23T02:41:43;21.00;99.90
45535;DHT22;35892;48.798;9.698;2022-07-23T02:44:09;20.90;99.90
45535;DHT22;35892;48.798;9.698;2022-07-23T02:46:36;20.80;99.90
45535;DHT22;35892;48.798;9.698;2022-07-23T02:49:03;20.70;99.90
45535;DHT22;35892;48.798;9.698;2022-07-23T02:51:33;20.70;99.90
45535;DHT22;35892;48.798;9.698;2022-07-23T02:53:59;20.70;99.90
45535;DHT22;35892;48.798;9.698;2022-07-23T02:56:26;20.70;99.90
45535;DHT22;35892;48.798;9.698;2022-07-23T02:58:55;20.80;99.90
45535;DHT22;35892;48.798;9.698;2022-07-23T03:01:24;20.70;99.90
45535;DHT22;35892;48.798;9.698;2022-07-23T03:03:51;20.60;99.90
45535;DHT22;35892;48.798;9.698;2022-07-23T03:06:18;20.50;99.90
45535;DHT22;35892;48.798;9.698;2022-07-23T03:08:47;20.50;99.90
45535;DHT22;35892;48.798;9.698;2022-07-23T03:11:14;20.50;99.90
45535;DHT22;35892;48.798;9.698;2022-07-23T03:13:45;20.40;99.90
45535;DHT22;35892;48.798;9.698;2022-07-23T03:16:12;20.40;99.90
45535;DHT22;35892;48.798;9.698;2022-07-23T03:18:44;20.40;99.90
45535;DHT22;35892;48.798;9.698;2022-07-23T03:21:15;20.30;99.90
45535;DHT22;35892;48.798;9.698;2022-07-23T03:23:42;20.30;99.90
45535;DHT22;35892;48.798;9.698;2022-07-23T03:26:11;20.30;99.90
45535;DHT22;35892;48.798;9.698;2022-07-23T03:28:38;20.30;99.90
45535;DHT22;35892;48.798;9.698;2022-07-23T03:31:04;20.30;99.90
45535;DHT22;35892;48.798;9.698;2022-07-23T03:33:31;20.20;99.90
45535;DHT22;35892;48.798;9.698;2022-07-23T03:35:58;20.10;99.90
45535;DHT22;35892;48.798;9.698;2022-07-23T03:38:26;20.00;99.90
45535;DHT22;35892;48.798;9.698;2022-07-23T03:40:54;20.00;99.90
45535;DHT22;35892;48.798;9.698;2022-07-23T03:43:21;20.10;99.90
45535;DHT22;35892;48.798;9.698;2022-07-23T03:45:50;20.00;99.90
45535;DHT22;35892;48.798;9.698;2022-07-23T03:48:20;20.10;99.90
45535;DHT22;35892;48.798;9.698;2022-07-23T03:50:47;20.00;99.90
45535;DHT22;35892;48.798;9.698;2022-07-23T03:53:13;20.00;99.90
45535;DHT22;35892;48.798;9.698;2022-07-23T03:55:40;20.00;99.90
45535;DHT22;35892;48.798;9.698;2022-07-23T03:58:08;20.00;99.90
45535;DHT22;35892;48.798;9.698;2022-07-23T04:00:35;19.90;99.90
45535;DHT22;35892;48.798;9.698;2022-07-23T04:03:06;19.80;99.90
45535;DHT22;35892;48.798;9.698;2022-07-23T04:05:38;19.80;99.90
45535;DHT22;35892;48.798;9.698;2022-07-23T04:08:04;19.80;99.90
45535;DHT22;35892;48.798;9.698;2022-07-23T04:10:31;19.80;99.90
45535;DHT22;35892;48.798;9.698;2022-07-23T04:13:00;19.80;99.90
45535;DHT22;35892;48.798;9.698;2022-07-23T04:15:27;19.80;99.90
45535;DHT22;35892;48.798;9.698;2022-07-23T04:17:54;19.80;99.90
45535;DHT22;35892;48.798;9.698;2022-07-23T04:20:21;19.70;99.90
45535;DHT22;35892;48.798;9.698;2022-07-23T04:22:47;19.80;99.90
45535;DHT22;35892;48.798;9.698;2022-07-23T04:25:17;19.70;99.90
45535;DHT22;35892;48.798;9.698;2022-07-23T04:27:43;19.80;99.90
45535;DHT22;35892;48.798;9.698;2022-07-23T04:30:13;19.80;99.90
45535;DHT22;35892;48.798;9.698;2022-07-23T04:32:40;19.90;99.90
45535;DHT22;35892;48.798;9.698;2022-07-23T04:35:07;20.00;99.90
45535;DHT22;35892;48.798;9.698;2022-07-23T04:37:34;20.10;99.90
45535;DHT22;35892;48.798;9.698;2022-07-23T04:40:03;20.30;99.90
45535;DHT22;35892;48.798;9.698;2022-07-23T04:42:30;20.30;99.90
45535;DHT22;35892;48.798;9.698;2022-07-23T04:45:01;20.30;99.90
45535;DHT22;35892;48.798;9.698;2022-07-23T04:47:30;20.40;99.90
45535;DHT22;35892;48.798;9.698;2022-07-23T04:49:57;20.50;99.90
45535;DHT22;35892;48.798;9.698;2022-07-23T04:52:24;20.50;99.90
45535;DHT22;35892;48.798;9.698;2022-07-23T04:54:51;20.60;99.90
45535;DHT22;35892;48.798;9.698;2022-07-23T04:57:18;20.60;99.90
45535;DHT22;35892;48.798;9.698;2022-07-23T04:59:47;20.70;99.90
45535;DHT22;35892;48.798;9.698;2022-07-23T05:02:16;21.00;99.90
45535;DHT22;35892;48.798;9.698;2022-07-23T05:04:43;21.20;99.90
45535;DHT22;35892;48.798;9.698;2022-07-23T05:07:10;21.20;99.90
45535;DHT22;35892;48.798;9.698;2022-07-23T05:09:36;21.30;99.90
45535;DHT22;35892;48.798;9.698;2022-07-23T05:12:03;21.30;99.90
45535;DHT22;35892;48.798;9.698;2022-07-23T05:14:30;21.40;99.90
45535;DHT22;35892;48.798;9.698;2022-07-23T05:16:57;21.50;99.90
45535;DHT22;35892;48.798;9.698;2022-07-23T05:19:27;21.50;99.90
45535;DHT22;35892;48.798;9.698;2022-07-23T05:21:53;21.50;99.90
45535;DHT22;35892;48.798;9.698;2022-07-23T05:24:22;21.50;99.90
45535;DHT22;35892;48.798;9.698;2022-07-23T05:26:51;21.50;99.90
45535;DHT22;35892;48.798;9.698;2022-07-23T05:29:18;21.60;99.90
45535;DHT22;35892;48.798;9.698;2022-07-23T05:31:48;21.90;99.90
45535;DHT22;35892;48.798;9.698;2022-07-23T05:34:15;22.00;99.90
45535;DHT22;35892;48.798;9.698;2022-07-23T05:36:46;22.10;99.90
45535;DHT22;35892;48.798;9.698;2022-07-23T05:39:15;22.20;99.90
45535;DHT22;35892;48.798;9.698;2022-07-23T05:41:42;22.20;99.90
45535;DHT22;35892;48.798;9.698;2022-07-23T05:44:09;22.30;99.90
45535;DHT22;35892;48.798;9.698;2022-07-23T05:46:36;22.40;99.90
45535;DHT22;35892;48.798;9.698;2022-07-23T05:49:05;22.60;99.90
45535;DHT22;35892;48.798;9.698;2022-07-23T05:51:35;22.60;99.90
45535;DHT22;35892;48.798;9.698;2022-07-23T05:54:02;22.60;99.90
45535;DHT22;35892;48.798;9.698;2022-07-23T05:56:29;22.60;99.90
45535;DHT22;35892;48.798;9.698;2022-07-23T05:58:55;22.70;99.90
45535;DHT22;35892;48.798;9.698;2022-07-23T06:01:22;22.80;99.90
45535;DHT22;35892;48.798;9.698;2022-07-23T06:03:49;22.90;99.90
45535;DHT22;35892;48.798;9.698;2022-07-23T06:06:16;22.90;99.90
45535;DHT22;35892;48.798;9.698;2022-07-23T06:08:43;23.00;99.90
45535;DHT22;35892;48.798;9.698;2022-07-23T06:11:10;23.30;99.90
45535;DHT22;35892;48.798;9.698;2022-07-23T06:13:44;23.60;99.90
45535;DHT22;35892;48.798;9.698;2022-07-23T06:16:11;23.80;99.90
45535;DHT22;35892;48.798;9.698;2022-07-23T06:18:38;23.80;99.90
45535;DHT22;35892;48.798;9.698;2022-07-23T06:21:05;23.90;99.90
45535;DHT22;35892;48.798;9.698;2022-07-23T06:23:54;24.00;99.90
45535;DHT22;35892;48.798;9.698;2022-07-23T06:26:21;24.00;99.90
45535;DHT22;35892;48.798;9.698;2022-07-23T06:28:50;24.00;99.90
45535;DHT22;35892;48.798;9.698;2022-07-23T06:31:17;24.00;99.90
45535;DHT22;35892;48.798;9.698;2022-07-23T06:33:44;24.00;99.90
45535;DHT22;35892;48.798;9.698;2022-07-23T06:36:11;24.00;99.90
45535;DHT22;35892;48.798;9.698;2022-07-23T06:38:40;24.20;99.90
45535;DHT22;35892;48.798;9.698;2022-07-23T06:41:10;24.30;99.90
45535;DHT22;35892;48.798;9.698;2022-07-23T06:43:37;24.30;99.90
45535;DHT22;35892;48.798;9.698;2022-07-23T06:46:04;24.20;99.90
45535;DHT22;35892;48.798;9.698;2022-07-23T06:48:31;24.20;99.90
45535;DHT22;35892;48.798;9.698;2022-07-23T06:51:02;24.10;99.90
45535;DHT22;35892;48.798;9.698;2022-07-23T06:53:32;24.10;99.90
45535;DHT22;35892;48.798;9.698;2022-07-23T06:55:58;24.30;99.90
45535;DHT22;35892;48.798;9.698;2022-07-23T06:58:25;24.40;99.60
45535;DHT22;35892;48.798;9.698;2022-07-23T07:00:55;24.60;99.40
45535;DHT22;35892;48.798;9.698;2022-07-23T07:03:23;24.80;98.80
45535;DHT22;35892;48.798;9.698;2022-07-23T07:05:52;25.00;98.00
45535;DHT22;35892;48.798;9.698;2022-07-23T07:08:22;25.20;97.60
45535;DHT22;35892;48.798;9.698;2022-07-23T07:10:51;25.30;97.10
45535;DHT22;35892;48.798;9.698;2022-07-23T07:13:18;25.30;96.80
45535;DHT22;35892;48.798;9.698;2022-07-23T07:15:47;25.30;96.30
45535;DHT22;35892;48.798;9.698;2022-07-23T07:18:13;25.60;95.90
45535;DHT22;35892;48.798;9.698;2022-07-23T07:20:40;25.90;95.40
45535;DHT22;35892;48.798;9.698;2022-07-23T07:23:07;26.20;95.10
45535;DHT22;35892;48.798;9.698;2022-07-23T07:25:34;26.50;94.20
45535;DHT22;35892;48.798;9.698;2022-07-23T07:28:01;26.60;93.40
45535;DHT22;35892;48.798;9.698;2022-07-23T07:30:30;26.50;93.10
45535;DHT22;35892;48.798;9.698;2022-07-23T07:33:00;26.40;92.70
45535;DHT22;35892;48.798;9.698;2022-07-23T07:35:27;26.30;92.10
45535;DHT22;35892;48.798;9.698;2022-07-23T07:37:58;26.10;91.10
45535;DHT22;35892;48.798;9.698;2022-07-23T07:40:26;25.90;91.30
45535;DHT22;35892;48.798;9.698;2022-07-23T07:42:59;25.90;90.80
45535;DHT22;35892;48.798;9.698;2022-07-23T07:45:26;25.90;91.10
45535;DHT22;35892;48.798;9.698;2022-07-23T07:47:53;25.80;90.60
45535;DHT22;35892;48.798;9.698;2022-07-23T07:50:20;25.70;90.80
45535;DHT22;35892;48.798;9.698;2022-07-23T07:52:50;25.60;91.20
45535;DHT22;35892;48.798;9.698;2022-07-23T07:55:17;25.70;91.20
45535;DHT22;35892;48.798;9.698;2022-07-23T07:57:44;25.80;90.90
45535;DHT22;35892;48.798;9.698;2022-07-23T08:00:15;25.80;90.50
45535;DHT22;35892;48.798;9.698;2022-07-23T08:02:50;25.90;90.50
45535;DHT22;35892;48.798;9.698;2022-07-23T08:05:25;25.80;90.10
45535;DHT22;35892;48.798;9.698;2022-07-23T08:07:55;25.50;90.00
45535;DHT22;35892;48.798;9.698;2022-07-23T08:10:23;25.30;90.20
45535;DHT22;35892;48.798;9.698;2022-07-23T08:12:55;25.30;88.70
45535;DHT22;35892;48.798;9.698;2022-07-23T08:15:25;25.20;88.60
45535;DHT22;35892;48.798;9.698;2022-07-23T08:17:55;25.30;87.80
45535;DHT22;35892;48.798;9.698;2022-07-23T08:20:23;25.30;87.90
45535;DHT22;35892;48.798;9.698;2022-07-23T08:25:45;25.70;85.90
45535;DHT22;35892;48.798;9.698;2022-07-23T08:28:14;25.70;85.30
45535;DHT22;35892;48.798;9.698;2022-07-23T08:30:43;26.00;85.10
45535;DHT22;35892;48.798;9.698;2022-07-23T08:33:12;26.20;83.50
45535;DHT22;35892;48.798;9.698;2022-07-23T08:35:59;26.40;83.00
45535;DHT22;35892;48.798;9.698;2022-07-23T08:38:32;26.30;80.60
45535;DHT22;35892;48.798;9.698;2022-07-23T08:41:02;26.20;80.60
45535;DHT22;35892;48.798;9.698;2022-07-23T08:43:32;26.20;81.20
45535;DHT22;35892;48.798;9.698;2022-07-23T08:46:05;26.30;82.00
45535;DHT22;35892;48.798;9.698;2022-07-23T08:48:36;26.40;80.50
45535;DHT22;35892;48.798;9.698;2022-07-23T08:51:06;26.60;79.40
45535;DHT22;35892;48.798;9.698;2022-07-23T08:53:34;27.00;78.30
45535;DHT22;35892;48.798;9.698;2022-07-23T08:56:08;27.20;77.30
45535;DHT22;35892;48.798;9.698;2022-07-23T08:58:35;27.30;77.00
45535;DHT22;35892;48.798;9.698;2022-07-23T09:01:03;27.60;75.60
45535;DHT22;35892;48.798;9.698;2022-07-23T09:03:36;27.80;73.20
45535;DHT22;35892;48.798;9.698;2022-07-23T09:06:05;27.50;71.90
45535;DHT22;35892;48.798;9.698;2022-07-23T09:08:43;27.30;73.30
45535;DHT22;35892;48.798;9.698;2022-07-23T09:11:12;27.20;74.30
45535;DHT22;35892;48.798;9.698;2022-07-23T09:16:17;26.90;76.10
45535;DHT22;35892;48.798;9.698;2022-07-23T09:18:49;27.10;75.80
45535;DHT22;35892;48.798;9.698;2022-07-23T09:21:22;27.30;75.80
45535;DHT22;35892;48.798;9.698;2022-07-23T09:29:22;27.40;73.30
45535;DHT22;35892;48.798;9.698;2022-07-23T09:32:02;27.40;73.20
45535;DHT22;35892;48.798;9.698;2022-07-23T09:34:37;27.40;73.20
45535;DHT22;35892;48.798;9.698;2022-07-23T09:37:15;27.40;73.00
45535;DHT22;35892;48.798;9.698;2022-07-23T09:39:46;27.50;72.30
45535;DHT22;35892;48.798;9.698;2022-07-23T09:44:48;27.20;75.50
45535;DHT22;35892;48.798;9.698;2022-07-23T09:47:15;27.10;74.90
45535;DHT22;35892;48.798;9.698;2022-07-23T09:50:06;27.10;75.90
45535;DHT22;35892;48.798;9.698;2022-07-23T09:55:11;27.00;73.60
45535;DHT22;35892;48.798;9.698;2022-07-23T09:57:41;27.00;75.50
45535;DHT22;35892;48.798;9.698;2022-07-23T10:00:09;27.00;74.40
45535;DHT22;35892;48.798;9.698;2022-07-23T10:02:38;27.00;74.30
45535;DHT22;35892;48.798;9.698;2022-07-23T10:05:06;27.00;75.30
45535;DHT22;35892;48.798;9.698;2022-07-23T10:07:42;27.00;73.30
45535;DHT22;35892;48.798;9.698;2022-07-23T10:10:09;27.10;72.70
45535;DHT22;35892;48.798;9.698;2022-07-23T10:12:38;27.10;72.20
45535;DHT22;35892;48.798;9.698;2022-07-23T10:15:21;27.10;74.30
45535;DHT22;35892;48.798;9.698;2022-07-23T10:17:51;27.20;72.80
45535;DHT22;35892;48.798;9.698;2022-07-23T10:20:18;27.30;72.60
45535;DHT22;35892;48.798;9.698;2022-07-23T10:25:45;27.30;71.10
45535;DHT22;35892;48.798;9.698;2022-07-23T10:28:29;27.30;70.40
45535;DHT22;35892;48.798;9.698;2022-07-23T10:34:44;27.10;70.70
45535;DHT22;35892;48.798;9.698;2022-07-23T10:36:47;27.10;71.90
45535;DHT22;35892;48.798;9.698;2022-07-23T10:39:29;27.30;72.20
45535;DHT22;35892;48.798;9.698;2022-07-23T10:42:14;27.30;71.30
45535;DHT22;35892;48.798;9.698;2022-07-23T10:47:13;27.60;70.50
45535;DHT22;35892;48.798;9.698;2022-07-23T10:50:30;27.70;70.20
45535;DHT22;35892;48.798;9.698;2022-07-23T10:55:41;27.80;70.40
45535;DHT22;35892;48.798;9.698;2022-07-23T10:58:08;28.00;69.50
45535;DHT22;35892;48.798;9.698;2022-07-23T11:00:38;28.10;67.20
45535;DHT22;35892;48.798;9.698;2022-07-23T11:03:30;27.80;66.00
45535;DHT22;35892;48.798;9.698;2022-07-23T11:05:58;27.80;66.30
45535;DHT22;35892;48.798;9.698;2022-07-23T11:08:25;27.70;67.10
45535;DHT22;35892;48.798;9.698;2022-07-23T11:10:55;27.70;67.20
45535;DHT22;35892;48.798;9.698;2022-07-23T11:24:09;27.90;67.40
45535;DHT22;35892;48.798;9.698;2022-07-23T11:32:22;27.90;68.10
45535;DHT22;35892;48.798;9.698;2022-07-23T11:34:50;28.00;68.50
45535;DHT22;35892;48.798;9.698;2022-07-23T11:37:38;28.20;69.20
45535;DHT22;35892;48.798;9.698;2022-07-23T11:40:11;28.30;67.80
45535;DHT22;35892;48.798;9.698;2022-07-23T11:42:51;28.40;67.10
45535;DHT22;35892;48.798;9.698;2022-07-23T11:45:18;28.50;67.00
45535;DHT22;35892;48.798;9.698;2022-07-23T11:47:45;28.40;65.00
45535;DHT22;35892;48.798;9.698;2022-07-23T11:50:12;28.40;64.10
45535;DHT22;35892;48.798;9.698;2022-07-23T11:52:41;28.50;64.00
45535;DHT22;35892;48.798;9.698;2022-07-23T11:55:09;28.60;64.80
45535;DHT22;35892;48.798;9.698;2022-07-23T11:57:39;28.60;63.60
45535;DHT22;35892;48.798;9.698;2022-07-23T12:02:46;28.70;59.60
45535;DHT22;35892;48.798;9.698;2022-07-23T12:05:20;28.60;60.50
45535;DHT22;35892;48.798;9.698;2022-07-23T12:07:50;28.70;59.00
45535;DHT22;35892;48.798;9.698;2022-07-23T12:13:05;28.80;59.20
45535;DHT22;35892;48.798;9.698;2022-07-23T12:15:39;29.20;58.90
45535;DHT22;35892;48.798;9.698;2022-07-23T12:18:09;29.20;57.60
45535;DHT22;35892;48.798;9.698;2022-07-23T12:20:43;29.30;58.70
45535;DHT22;35892;48.798;9.698;2022-07-23T12:23:14;29.30;58.40
45535;DHT22;35892;48.798;9.698;2022-07-23T12:25:47;29.40;58.40
45535;DHT22;35892;48.798;9.698;2022-07-23T12:30:48;29.50;59.30
45535;DHT22;35892;48.798;9.698;2022-07-23T12:33:27;29.50;57.40
45535;DHT22;35892;48.798;9.698;2022-07-23T12:35:59;29.40;56.80
45535;DHT22;35892;48.798;9.698;2022-07-23T12:38:44;29.30;57.20
45535;DHT22;35892;48.798;9.698;2022-07-23T12:41:13;29.40;57.70
45535;DHT22;35892;48.798;9.698;2022-07-23T12:43:45;29.30;55.00
45535;DHT22;35892;48.798;9.698;2022-07-23T12:51:30;29.30;56.10
45535;DHT22;35892;48.798;9.698;2022-07-23T12:54:04;29.30;56.40
45535;DHT22;35892;48.798;9.698;2022-07-23T12:56:39;29.50;56.70
45535;DHT22;35892;48.798;9.698;2022-07-23T12:59:08;29.80;56.60
45535;DHT22;35892;48.798;9.698;2022-07-23T13:01:45;29.70;56.30
45535;DHT22;35892;48.798;9.698;2022-07-23T13:04:24;29.50;57.30
45535;DHT22;35892;48.798;9.698;2022-07-23T13:06:57;29.30;58.20
45535;DHT22;35892;48.798;9.698;2022-07-23T13:09:28;29.20;58.10
45535;DHT22;35892;48.798;9.698;2022-07-23T13:11:59;29.20;58.60
45535;DHT22;35892;48.798;9.698;2022-07-23T13:14:27;29.10;57.80
45535;DHT22;35892;48.798;9.698;2022-07-23T13:16:57;29.10;58.50
45535;DHT22;35892;48.798;9.698;2022-07-23T13:19:25;29.20;58.00
45535;DHT22;35892;48.798;9.698;2022-07-23T13:21:53;29.50;57.60
45535;DHT22;35892;48.798;9.698;2022-07-23T13:24:21;29.80;56.00
45535;DHT22;35892;48.798;9.698;2022-07-23T13:26:51;29.80;54.80
45535;DHT22;35892;48.798;9.698;2022-07-23T13:29:23;29.80;55.60
45535;DHT22;35892;48.798;9.698;2022-07-23T13:31:52;29.90;56.00
45535;DHT22;35892;48.798;9.698;2022-07-23T13:34:21;29.80;55.90
45535;DHT22;35892;48.798;9.698;2022-07-23T13:36:48;29.70;55.50
45535;DHT22;35892;48.798;9.698;2022-07-23T13:39:17;29.50;56.30
45535;DHT22;35892;48.798;9.698;2022-07-23T13:41:46;29.40;56.20
45535;DHT22;35892;48.798;9.698;2022-07-23T13:44:17;29.50;56.60
45535;DHT22;35892;48.798;9.698;2022-07-23T13:46:46;29.50;56.80
45535;DHT22;35892;48.798;9.698;2022-07-23T13:49:13;29.40;57.20
45535;DHT22;35892;48.798;9.698;2022-07-23T13:51:41;29.30;56.90
45535;DHT22;35892;48.798;9.698;2022-07-23T13:54:10;29.20;58.00
45535;DHT22;35892;48.798;9.698;2022-07-23T13:56:37;29.30;57.80
45535;DHT22;35892;48.798;9.698;2022-07-23T13:59:04;29.40;57.40
45535;DHT22;35892;48.798;9.698;2022-07-23T14:01:33;29.40;57.50
45535;DHT22;35892;48.798;9.698;2022-07-23T14:04:16;29.50;57.30
45535;DHT22;35892;48.798;9.698;2022-07-23T14:06:44;29.50;57.30
45535;DHT22;35892;48.798;9.698;2022-07-23T14:09:18;29.50;58.10
45535;DHT22;35892;48.798;9.698;2022-07-23T14:11:44;29.70;57.00
45535;DHT22;35892;48.798;9.698;2022-07-23T14:14:11;29.60;57.10
45535;DHT22;35892;48.798;9.698;2022-07-23T14:16:38;29.90;56.90
45535;DHT22;35892;48.798;9.698;2022-07-23T14:19:05;29.90;56.50
45535;DHT22;35892;48.798;9.698;2022-07-23T14:21:34;30.10;56.60
45535;DHT22;35892;48.798;9.698;2022-07-23T14:24:01;29.90;57.40
45535;DHT22;35892;48.798;9.698;2022-07-23T14:26:30;29.80;58.10
45535;DHT22;35892;48.798;9.698;2022-07-23T14:28:57;29.70;58.20
45535;DHT22;35892;48.798;9.698;2022-07-23T14:31:24;29.70;58.10
45535;DHT22;35892;48.798;9.698;2022-07-23T14:33:51;29.80;57.80
45535;DHT22;35892;48.798;9.698;2022-07-23T14:36:20;29.60;57.60
45535;DHT22;35892;48.798;9.698;2022-07-23T14:38:46;29.50;58.40
45535;DHT22;35892;48.798;9.698;2022-07-23T14:41:16;29.50;58.00
45535;DHT22;35892;48.798;9.698;2022-07-23T14:43:45;29.40;58.10
45535;DHT22;35892;48.798;9.698;2022-07-23T14:46:13;29.70;58.20
45535;DHT22;35892;48.798;9.698;2022-07-23T14:48:46;29.90;57.70
45535;DHT22;35892;48.798;9.698;2022-07-23T14:51:16;30.10;57.70
45535;DHT22;35892;48.798;9.698;2022-07-23T14:53:45;30.00;57.80
45535;DHT22;35892;48.798;9.698;2022-07-23T14:56:14;29.80;57.90
45535;DHT22;35892;48.798;9.698;2022-07-23T14:58:46;29.80;57.40
45535;DHT22;35892;48.798;9.698;2022-07-23T15:01:13;29.90;56.70
45535;DHT22;35892;48.798;9.698;2022-07-23T15:03:43;29.90;56.90
45535;DHT22;35892;48.798;9.698;2022-07-23T15:06:10;30.00;56.60
45535;DHT22;35892;48.798;9.698;2022-07-23T15:08:38;30.00;56.90
45535;DHT22;35892;48.798;9.698;2022-07-23T15:11:05;30.30;57.30
45535;DHT22;35892;48.798;9.698;2022-07-23T15:13:36;30.40;55.70
45535;DHT22;35892;48.798;9.698;2022-07-23T15:16:05;30.30;55.30
45535;DHT22;35892;48.798;9.698;2022-07-23T15:18:36;30.40;56.00
45535;DHT22;35892;48.798;9.698;2022-07-23T15:21:03;30.30;56.60
45535;DHT22;35892;48.798;9.698;2022-07-23T15:23:30;30.20;56.30
45535;DHT22;35892;48.798;9.698;2022-07-23T15:25:58;30.10;56.80
45535;DHT22;35892;48.798;9.698;2022-07-23T15:28:25;30.00;57.30
45535;DHT22;35892;48.798;9.698;2022-07-23T15:30:53;29.70;57.40
45535;DHT22;35892;48.798;9.698;2022-07-23T15:33:20;29.70;57.60
45535;DHT22;35892;48.798;9.698;2022-07-23T15:35:50;29.80;57.00
45535;DHT22;35892;48.798;9.698;2022-07-23T15:38:19;30.00;56.80
45535;DHT22;35892;48.798;9.698;2022-07-23T15:40:52;30.60;53.80
45535;DHT22;35892;48.798;9.698;2022-07-23T15:43:20;31.60;51.80
45535;DHT22;35892;48.798;9.698;2022-07-23T15:45:48;32.10;51.40
45535;DHT22;35892;48.798;9.698;2022-07-23T15:48:15;32.60;50.00
45535;DHT22;35892;48.798;9.698;2022-07-23T15:50:42;33.00;49.10
45535;DHT22;35892;48.798;9.698;2022-07-23T15:53:12;33.70;47.60
45535;DHT22;35892;48.798;9.698;2022-07-23T15:55:42;33.90;47.00
45535;DHT22;35892;48.798;9.698;2022-07-23T15:58:12;32.60;48.90
45535;DHT22;35892;48.798;9.698;2022-07-23T16:00:40;31.60;51.00
45535;DHT22;35892;48.798;9.698;2022-07-23T16:03:11;30.90;52.10
45535;DHT22;35892;48.798;9.698;2022-07-23T16:05:38;30.60;52.50
45535;DHT22;35892;48.798;9.698;2022-07-23T16:08:07;30.40;52.40
45535;DHT22;35892;48.798;9.698;2022-07-23T16:10:34;31.40;51.50
45535;DHT22;35892;48.798;9.698;2022-07-23T16:13:03;31.90;50.80
45535;DHT22;35892;48.798;9.698;2022-07-23T16:15:30;31.50;51.70
45535;DHT22;35892;48.798;9.698;2022-07-23T16:18:00;31.50;51.50
45535;DHT22;35892;48.798;9.698;2022-07-23T16:20:29;32.30;50.10
45535;DHT22;35892;48.798;9.698;2022-07-23T16:22:56;32.90;48.60
45535;DHT22;35892;48.798;9.698;2022-07-23T16:25:22;34.10;46.80
45535;DHT22;35892;48.798;9.698;2022-07-23T16:27:54;34.70;45.10
45535;DHT22;35892;48.798;9.698;2022-07-23T16:30:26;35.80;43.50
45535;DHT22;35892;48.798;9.698;2022-07-23T16:32:58;36.10;43.00
45535;DHT22;35892;48.798;9.698;2022-07-23T16:35:31;36.20;42.50
45535;DHT22;35892;48.798;9.698;2022-07-23T16:38:00;36.60;41.80
45535;DHT22;35892;48.798;9.698;2022-07-23T16:40:30;37.50;40.40